Time;durP1;ratioP1;P1;durP2;ratioP2;P2;SDS_P1;SDS_P2;PMS_P1;PMS_P2;Temp;Humidity;BMP_temperature;BMP_pressure;BME280_temperature;BME280_humidity;BME280_pressure;Samples;Min_cycle;Max_cycle;Signal;HPM_P1;HPM_P2
2022/09/26 00:01:53;;;;;;;9.05;7.20;;;;;;;9.11;100.00;100984.44;5030974;28;20025;-72
2022/09/26 00:04:25;;;;;;;10.73;7.55;;;;;;;9.09;100.00;100984.47;5028703;28;20017;-72
2022/09/26 00:06:52;;;;;;;10.35;7.80;;;;;;;9.11;100.00;100981.84;5032913;28;20056;-72
2022/09/26 00:09:17;;;;;;;11.20;7.60;;;;;;;9.11;100.00;100976.63;5032555;28;20033;-72
2022/09/26 00:11:43;;;;;;;10.60;7.85;;;;;;;9.08;100.00;100967.13;5031908;28;20033;-72
2022/09/26 00:14:15;;;;;;;9.25;7.53;;;;;;;9.02;100.00;100956.81;5032657;28;20060;-72
2022/09/26 00:16:41;;;;;;;12.32;8.32;;;;;;;9.11;100.00;100955.81;5031554;28;20071;-72
2022/09/26 00:19:07;;;;;;;11.27;8.10;;;;;;;9.12;100.00;100960.13;5032382;28;20446;-72
2022/09/26 00:21:34;;;;;;;13.20;7.35;;;;;;;9.10;100.00;100952.38;5031151;28;20029;-72
2022/09/26 00:24:00;;;;;;;11.02;7.90;;;;;;;9.12;100.00;100947.13;5032190;28;20022;-72
2022/09/26 00:26:27;;;;;;;11.80;8.00;;;;;;;9.13;100.00;100939.31;5031420;28;20030;-72
2022/09/26 00:28:53;;;;;;;10.18;7.45;;;;;;;9.14;100.00;100938.44;5031414;28;20021;-72
2022/09/26 00:31:28;;;;;;;12.25;8.55;;;;;;;9.18;100.00;100935.78;5031408;28;20543;-72
2022/09/26 00:33:53;;;;;;;12.75;8.73;;;;;;;9.14;100.00;100927.16;5032344;28;20065;-72
2022/09/26 00:36:19;;;;;;;8.73;7.32;;;;;;;9.20;100.00;100924.47;5031543;28;20493;-72
2022/09/26 00:38:45;;;;;;;10.90;7.93;;;;;;;9.21;100.00;100926.19;5025478;28;20584;-72
2022/09/26 00:41:11;;;;;;;12.43;7.95;;;;;;;9.25;100.00;100921.78;5031227;28;20112;-72
2022/09/26 00:43:42;;;;;;;10.63;8.52;;;;;;;9.28;100.00;100926.94;5032306;28;20025;-72
2022/09/26 00:46:35;;;;;;;12.18;8.27;;;;;;;9.32;100.00;100916.47;5030538;28;20572;-72
2022/09/26 00:49:25;;;;;;;12.52;8.07;;;;;;;9.37;100.00;100924.19;5031295;28;20428;-71
2022/09/26 00:52:05;;;;;;;9.57;7.18;;;;;;;9.41;100.00;100911.97;5031445;28;20136;-72
2022/09/26 00:54:31;;;;;;;12.88;6.70;;;;;;;9.45;100.00;100909.31;5026001;28;20045;-71
2022/09/26 00:57:03;;;;;;;13.30;7.70;;;;;;;9.49;100.00;100905.75;5032196;28;20132;-72
2022/09/26 00:59:35;;;;;;;12.32;7.95;;;;;;;9.50;100.00;100893.59;5028745;28;20029;-72
2022/09/26 01:02:01;;;;;;;15.85;7.47;;;;;;;9.54;100.00;100897.84;5027804;28;20033;-71
2022/09/26 01:04:30;;;;;;;10.82;7.78;;;;;;;9.54;100.00;100883.09;5031678;28;20533;-72
2022/09/26 01:06:58;;;;;;;10.65;7.22;;;;;;;9.57;100.00;100875.22;5029611;28;20466;-71
2022/09/26 01:09:24;;;;;;;10.90;7.25;;;;;;;9.60;100.00;100874.31;5031134;28;20096;-72
2022/09/26 01:11:50;;;;;;;13.45;7.68;;;;;;;9.54;100.00;100862.28;5031130;28;20036;-71
2022/09/26 01:14:15;;;;;;;11.23;6.65;;;;;;;9.61;100.00;100857.81;5031045;28;20041;-71
2022/09/26 01:16:45;;;;;;;10.75;6.20;;;;;;;9.64;100.00;100864.72;5030498;28;20035;-72
2022/09/26 01:19:22;;;;;;;13.15;6.80;;;;;;;9.67;100.00;100856.84;5018810;28;20036;-71
2022/09/26 01:22:20;;;;;;;11.68;6.82;;;;;;;9.68;100.00;100843.81;5030631;28;20381;-72
2022/09/26 01:25:18;;;;;;;10.52;6.30;;;;;;;9.71;100.00;100846.34;5019471;28;20469;-72
2022/09/26 01:27:56;;;;;;;9.45;6.57;;;;;;;9.70;100.00;100835.97;5029713;28;20492;-71
2022/09/26 01:30:30;;;;;;;10.70;6.20;;;;;;;9.72;100.00;100826.38;5029672;28;20033;-71
2022/09/26 01:33:17;;;;;;;11.50;6.13;;;;;;;9.75;100.00;100826.31;5032109;28;20161;-71
2022/09/26 01:36:08;;;;;;;10.93;5.80;;;;;;;9.70;100.00;100804.72;5029443;28;20385;-72
2022/09/26 01:39:11;;;;;;;12.35;5.78;;;;;;;9.75;100.00;100806.34;5030454;28;20033;-71
2022/09/26 01:42:09;;;;;;;8.40;6.40;;;;;;;9.76;100.00;100804.59;5029841;28;20036;-71
2022/09/26 01:44:40;;;;;;;7.97;5.40;;;;;;;9.75;100.00;100801.13;5031442;28;20057;-71
2022/09/26 01:47:32;;;;;;;10.05;5.68;;;;;;;9.74;100.00;100786.38;5027898;28;20469;-71
2022/09/26 01:50:05;;;;;;;8.98;5.35;;;;;;;9.72;100.00;100789.94;5029325;28;20029;-71
2022/09/26 01:53:12;;;;;;;8.10;5.43;;;;;;;9.67;100.00;100778.75;5030143;28;20041;-71
2022/09/26 01:55:43;;;;;;;9.48;5.38;;;;;;;9.65;100.00;100780.53;4995382;28;20111;-71
2022/09/26 01:58:27;;;;;;;8.57;5.25;;;;;;;9.59;100.00;100768.50;5030823;28;20076;-72
2022/09/26 02:00:57;;;;;;;10.30;4.75;;;;;;;9.57;100.00;100762.47;5033045;28;20037;-72
2022/09/26 02:03:28;;;;;;;9.77;4.47;;;;;;;9.49;100.00;100749.63;5034052;28;20037;-71
2022/09/26 02:05:58;;;;;;;8.25;5.28;;;;;;;9.44;100.00;100741.03;5034672;28;20029;-71
2022/09/26 02:08:26;;;;;;;9.98;5.28;;;;;;;9.47;100.00;100745.31;5034870;28;20068;-72
2022/09/26 02:11:00;;;;;;;7.88;4.30;;;;;;;9.45;100.00;100740.16;5033679;28;20061;-71
2022/09/26 02:13:32;;;;;;;7.93;4.50;;;;;;;9.39;100.00;100729.88;5032974;28;20075;-72
2022/09/26 02:16:06;;;;;;;9.07;4.85;;;;;;;9.30;100.00;100720.50;5035028;28;20091;-71
2022/09/26 02:18:38;;;;;;;10.90;4.80;;;;;;;9.40;100.00;100731.59;5033817;28;20041;-72
2022/09/26 02:21:23;;;;;;;10.93;4.85;;;;;;;9.38;100.00;100726.44;5033932;28;20036;-71
2022/09/26 02:23:50;;;;;;;7.15;4.32;;;;;;;9.38;100.00;100720.34;5034669;28;20057;-71
2022/09/26 02:26:16;;;;;;;12.85;5.10;;;;;;;9.38;100.00;100716.03;5034107;28;20095;-72
2022/09/26 02:28:42;;;;;;;6.35;4.32;;;;;;;9.37;100.00;100703.03;5033726;28;20478;-71
2022/09/26 02:31:08;;;;;;;7.18;4.68;;;;;;;9.40;100.00;100708.16;5033382;28;20025;-71
2022/09/26 02:33:35;;;;;;;6.93;4.55;;;;;;;9.40;100.00;100702.97;5033471;28;20026;-71
2022/09/26 02:36:04;;;;;;;9.52;4.85;;;;;;;9.43;100.00;100702.91;5033947;28;20037;-71
2022/09/26 02:38:30;;;;;;;10.82;4.93;;;;;;;9.40;100.00;100687.34;5033231;28;20032;-71
2022/09/26 02:41:18;;;;;;;7.70;4.22;;;;;;;9.44;100.00;100683.78;5034253;28;20446;-71
2022/09/26 02:44:05;;;;;;;10.60;4.72;;;;;;;9.47;100.00;100688.06;4995557;28;20069;-72
2022/09/26 02:47:03;;;;;;;8.93;4.50;;;;;;;9.49;100.00;100687.16;5032303;28;20026;-71
2022/09/26 02:49:48;;;;;;;5.45;4.05;;;;;;;9.48;100.00;100685.47;5033736;28;20029;-72
2022/09/26 02:52:29;;;;;;;9.07;4.35;;;;;;;9.51;100.00;100682.75;5023385;28;20045;-72
2022/09/26 02:55:14;;;;;;;10.32;4.25;;;;;;;9.52;100.00;100670.63;5028128;28;20026;-72
2022/09/26 02:58:04;;;;;;;8.07;4.05;;;;;;;9.52;100.00;100665.44;5033825;28;20594;-72
2022/09/26 03:00:44;;;;;;;8.50;4.32;;;;;;;9.54;100.00;100671.44;5031468;28;20030;-71
2022/09/26 03:03:41;;;;;;;10.77;5.15;;;;;;;9.54;100.00;100658.41;5033174;28;20088;-71
2022/09/26 03:06:10;;;;;;;6.03;3.67;;;;;;;9.56;100.00;100659.25;5028897;28;20112;-71
2022/09/26 03:08:39;;;;;;;6.95;3.80;;;;;;;9.55;100.00;100652.34;5034143;28;20060;-71
2022/09/26 03:11:09;;;;;;;10.68;3.92;;;;;;;9.49;100.00;100634.25;5033781;28;20200;-72
2022/09/26 03:13:37;;;;;;;8.77;3.90;;;;;;;9.58;100.00;100642.72;5032026;28;20029;-72
2022/09/26 03:16:05;;;;;;;7.35;3.70;;;;;;;9.60;100.00;100642.69;5029340;28;20120;-72
2022/09/26 03:18:55;;;;;;;6.57;3.70;;;;;;;9.60;100.00;100638.31;5033403;28;20061;-71
2022/09/26 03:21:21;;;;;;;8.55;3.42;;;;;;;9.55;100.00;100631.53;5031823;28;20469;-72
2022/09/26 03:23:48;;;;;;;12.88;3.88;;;;;;;9.51;100.00;100628.13;5032081;28;20039;-71
2022/09/26 03:26:17;;;;;;;6.38;4.10;;;;;;;9.44;100.00;100608.31;5032825;28;20025;-72
2022/09/26 03:28:43;;;;;;;8.88;3.33;;;;;;;9.45;100.00;100619.59;5032584;28;20427;-71
2022/09/26 03:31:08;;;;;;;13.18;4.30;;;;;;;9.45;100.00;100619.59;5033631;28;20491;-71
2022/09/26 03:33:34;;;;;;;7.10;3.38;;;;;;;9.41;100.00;100610.16;5033086;28;20034;-72
2022/09/26 03:36:03;;;;;;;7.70;3.40;;;;;;;9.45;100.00;100607.47;5031865;28;20489;-72
2022/09/26 03:38:29;;;;;;;6.53;3.30;;;;;;;9.45;100.00;100603.97;5033818;28;20468;-71
2022/09/26 03:40:57;;;;;;;8.68;3.15;;;;;;;9.50;100.00;100600.38;5032641;28;20064;-72
2022/09/26 03:43:23;;;;;;;9.25;3.20;;;;;;;9.49;100.00;100588.28;5031665;28;20040;-71
2022/09/26 03:45:49;;;;;;;6.53;3.08;;;;;;;9.51;100.00;100588.22;5033664;28;20030;-71
2022/09/26 03:48:15;;;;;;;5.85;3.50;;;;;;;9.50;100.00;100579.56;5033518;28;20037;-71
2022/09/26 03:50:40;;;;;;;8.32;3.25;;;;;;;9.43;100.00;100575.41;5031254;28;20436;-71
2022/09/26 03:53:06;;;;;;;7.97;3.42;;;;;;;9.41;100.00;100584.97;5032363;28;20042;-71
2022/09/26 03:55:31;;;;;;;10.50;3.70;;;;;;;9.35;100.00;100583.41;5031735;28;20147;-71
2022/09/26 03:57:59;;;;;;;7.00;3.50;;;;;;;9.29;100.00;100574.88;5033699;28;20585;-71
2022/09/26 04:00:24;;;;;;;6.88;3.45;;;;;;;9.26;100.00;100561.94;5031575;28;20029;-71
2022/09/26 04:02:50;;;;;;;7.82;3.75;;;;;;;9.28;100.00;100565.34;5031151;28;20439;-71
2022/09/26 04:05:15;;;;;;;7.03;3.72;;;;;;;9.24;100.00;100561.09;5032544;28;20060;-71
2022/09/26 04:07:43;;;;;;;9.02;3.75;;;;;;;9.21;100.00;100556.81;5032302;28;20036;-71
2022/09/26 04:10:08;;;;;;;5.68;3.40;;;;;;;9.18;100.00;100550.81;5032212;28;20107;-71
2022/09/26 04:12:34;;;;;;;10.40;3.60;;;;;;;9.16;100.00;100548.28;5032926;28;20065;-71
2022/09/26 04:14:59;;;;;;;8.20;4.15;;;;;;;9.14;100.00;100532.69;5030608;28;20025;-71
2022/09/26 04:17:24;;;;;;;7.45;3.63;;;;;;;9.12;100.00;100531.88;5031405;28;20435;-71
2022/09/26 04:19:49;;;;;;;8.52;3.67;;;;;;;9.04;100.00;100520.78;5030153;28;20021;-71
2022/09/26 04:22:15;;;;;;;7.88;4.47;;;;;;;8.94;100.00;100498.47;5032482;28;20021;-71
2022/09/26 04:24:40;;;;;;;9.00;4.10;;;;;;;9.04;100.00;100506.94;5027911;28;20584;-71
2022/09/26 04:27:07;;;;;;;13.98;4.15;;;;;;;9.02;100.00;100512.16;5030077;28;20021;-71
2022/09/26 04:29:32;;;;;;;7.63;3.50;;;;;;;9.03;100.00;100510.44;5032075;28;20029;-71
2022/09/26 04:31:58;;;;;;;5.00;3.53;;;;;;;9.00;100.00;100500.94;5031516;28;20381;-71
2022/09/26 04:34:23;;;;;;;10.32;3.40;;;;;;;9.02;100.00;100498.31;5031038;28;20075;-71
2022/09/26 04:36:50;;;;;;;10.60;3.80;;;;;;;8.99;100.00;100495.75;5031262;28;20021;-71
2022/09/26 04:39:15;;;;;;;6.85;3.58;;;;;;;9.00;100.00;100487.94;5031561;28;20444;-71
2022/09/26 04:41:41;;;;;;;6.93;3.53;;;;;;;8.94;100.00;100475.09;5028052;28;20021;-71
2022/09/26 04:44:06;;;;;;;5.57;3.42;;;;;;;8.97;100.00;100469.81;5030970;28;20386;-71
2022/09/26 04:46:32;;;;;;;7.70;3.58;;;;;;;8.95;100.00;100453.38;5030250;28;20023;-71
2022/09/26 04:48:59;;;;;;;12.38;3.40;;;;;;;9.00;100.00;100454.16;5032699;28;20029;-71
2022/09/26 04:51:25;;;;;;;6.15;3.42;;;;;;;9.00;100.00;100435.94;5030285;28;20056;-72
2022/09/26 04:53:50;;;;;;;10.98;3.50;;;;;;;8.99;100.00;100439.44;5030844;28;20038;-71
2022/09/26 04:56:18;;;;;;;13.15;3.25;;;;;;;9.00;100.00;100448.94;5027706;28;20039;-71
2022/09/26 04:58:44;;;;;;;7.53;3.58;;;;;;;9.01;100.00;100437.66;5030690;28;20477;-71
2022/09/26 05:01:11;;;;;;;9.23;4.47;;;;;;;8.97;100.00;100422.16;5029869;28;20026;-71
2022/09/26 05:03:37;;;;;;;5.47;3.35;;;;;;;8.99;100.00;100423.84;5024193;28;20030;-71
2022/09/26 05:06:07;;;;;;;8.68;3.90;;;;;;;8.99;100.00;100421.25;5027949;28;20400;-72
2022/09/26 05:08:36;;;;;;;8.70;3.38;;;;;;;8.97;100.00;100415.22;5031149;28;20072;-72
2022/09/26 05:11:02;;;;;;;13.88;3.70;;;;;;;8.99;100.00;100413.44;5028443;28;20160;-71
2022/09/26 05:13:28;;;;;;;7.25;3.53;;;;;;;9.02;100.00;100407.28;5029530;28;20488;-71
2022/09/26 05:15:54;;;;;;;9.25;3.55;;;;;;;9.02;100.00;100405.53;5031706;28;20029;-72
2022/09/26 05:18:24;;;;;;;6.93;3.47;;;;;;;9.01;100.00;100383.03;5019523;28;20034;-72
2022/09/26 05:20:49;;;;;;;7.68;3.60;;;;;;;8.98;100.00;100371.88;5029541;28;20039;-71
2022/09/26 05:26:20;;;;;;;9.98;4.07;;;;;;;8.91;100.00;100381.56;5023600;28;20056;-71
2022/09/26 05:29:00;;;;;;;11.40;4.28;;;;;;;8.89;100.00;100380.72;5020881;28;20072;-71
2022/09/26 05:31:27;;;;;;;10.98;4.43;;;;;;;8.88;100.00;100363.44;5025368;28;20029;-71
2022/09/26 05:33:55;;;;;;;11.23;4.28;;;;;;;8.86;100.00;100362.59;5030996;28;20033;-72
2022/09/26 05:36:20;;;;;;;8.63;4.20;;;;;;;8.88;100.00;100366.88;5028603;28;20029;-72
2022/09/26 05:38:46;;;;;;;8.02;4.07;;;;;;;8.89;100.00;100360.81;5030784;28;20500;-71
2022/09/26 05:41:12;;;;;;;12.43;4.60;;;;;;;8.87;100.00;100359.13;5029241;28;20045;-71
2022/09/26 05:43:38;;;;;;;12.13;4.45;;;;;;;8.89;100.00;100359.94;5027675;28;20493;-71
2022/09/26 05:46:06;;;;;;;10.45;4.80;;;;;;;8.92;100.00;100362.47;5031014;28;20025;-71
2022/09/26 05:48:34;;;;;;;10.00;4.95;;;;;;;8.91;100.00;100360.75;5030304;28;20046;-71
2022/09/26 05:51:11;;;;;;;10.10;4.93;;;;;;;8.91;100.00;100360.75;5030089;28;20025;-71
2022/09/26 05:53:37;;;;;;;11.50;4.65;;;;;;;8.94;100.00;100359.84;5030982;28;20045;-72
2022/09/26 05:56:04;;;;;;;8.48;4.53;;;;;;;8.95;100.00;100357.19;5029334;28;20511;-72
2022/09/26 05:58:31;;;;;;;8.75;4.55;;;;;;;8.91;100.00;100346.00;5024073;28;20025;-72
2022/09/26 06:01:04;;;;;;;6.88;4.07;;;;;;;8.96;100.00;100352.84;5029589;28;20029;-72
2022/09/26 06:03:33;;;;;;;12.27;4.80;;;;;;;8.94;100.00;100344.25;5023149;28;20429;-72
2022/09/26 06:06:10;;;;;;;10.05;4.68;;;;;;;8.97;100.00;100345.03;5029716;28;20037;-71
2022/09/26 06:08:36;;;;;;;9.25;4.80;;;;;;;8.99;100.00;100342.38;5029888;28;20068;-72
2022/09/26 06:11:07;;;;;;;13.13;4.72;;;;;;;9.01;100.00;100338.00;5029844;28;20060;-72
2022/09/26 06:13:33;;;;;;;10.23;4.30;;;;;;;8.98;100.00;100325.91;5030250;28;20388;-71
2022/09/26 06:16:05;;;;;;;10.00;4.65;;;;;;;9.00;100.00;100311.16;5030548;28;20108;-72
2022/09/26 06:18:32;;;;;;;9.90;4.55;;;;;;;9.01;100.00;100309.41;5030438;28;20047;-72
2022/09/26 06:21:06;;;;;;;8.15;4.00;;;;;;;9.02;100.00;100304.13;5028995;28;20131;-72
2022/09/26 06:23:35;;;;;;;7.20;4.43;;;;;;;9.02;100.00;100285.09;5029613;28;20120;-72
2022/09/26 06:26:03;;;;;;;10.45;4.18;;;;;;;9.03;100.00;100282.47;5029991;28;20501;-71
2022/09/26 06:28:29;;;;;;;11.45;4.57;;;;;;;9.04;100.00;100275.53;5030308;28;20485;-72
2022/09/26 06:30:56;;;;;;;7.70;4.22;;;;;;;9.01;100.00;100268.66;5029281;28;20033;-72
2022/09/26 06:33:22;;;;;;;11.30;4.78;;;;;;;9.04;100.00;100263.38;5029997;28;20036;-72
2022/09/26 06:35:58;;;;;;;8.43;3.67;;;;;;;9.05;100.00;100254.66;5030013;28;20086;-72
2022/09/26 06:38:23;;;;;;;9.13;4.13;;;;;;;9.11;100.00;100257.09;5028774;28;20397;-72
2022/09/26 06:40:54;;;;;;;5.25;3.63;;;;;;;9.17;100.00;100252.66;5030404;28;20026;-72
2022/09/26 06:43:19;;;;;;;8.48;4.10;;;;;;;9.16;100.00;100249.19;5030436;28;20030;-71
2022/09/26 06:45:47;;;;;;;10.63;4.13;;;;;;;9.28;100.00;100242.78;5024480;28;20029;-71
2022/09/26 06:48:13;;;;;;;8.23;3.28;;;;;;;9.34;100.00;100240.88;5024013;28;20040;-71
2022/09/26 06:50:38;;;;;;;7.22;3.63;;;;;;;9.38;100.00;100223.41;5031147;28;20021;-71
2022/09/26 06:53:04;;;;;;;10.55;3.33;;;;;;;9.45;100.00;100222.38;5032880;28;20485;-71
2022/09/26 06:55:29;;;;;;;9.23;3.47;;;;;;;9.41;100.00;100220.72;5033002;28;20033;-71
2022/09/26 06:57:54;;;;;;;9.88;3.33;;;;;;;9.38;100.00;100205.22;5028705;28;20542;-71
2022/09/26 07:00:20;;;;;;;7.45;3.30;;;;;;;9.43;100.00;100198.13;5033079;28;20032;-71
2022/09/26 07:02:52;;;;;;;6.05;3.05;;;;;;;9.52;100.00;100202.22;5034753;28;20032;-70
2022/09/26 07:05:19;;;;;;;9.35;4.13;;;;;;;9.60;100.00;100208.06;5032087;28;20427;-71
2022/09/26 07:07:45;;;;;;;7.22;2.90;;;;;;;9.66;100.00;100200.06;5031030;28;20049;-71
2022/09/26 07:10:11;;;;;;;8.50;2.90;;;;;;;9.77;100.00;100190.16;5028613;28;20037;-70
2022/09/26 07:12:39;;;;;;;5.90;2.72;;;;;;;9.80;100.00;100178.81;5031161;28;20022;-71
2022/09/26 07:15:06;;;;;;;5.53;2.45;;;;;;;9.87;100.00;100169.91;5028874;28;20061;-71
2022/09/26 07:17:32;;;;;;;5.97;2.88;;;;;;;9.89;100.00;100169.88;5028230;28;20038;-71
2022/09/26 07:19:57;;;;;;;4.53;2.35;;;;;;;9.96;100.00;100168.78;5032023;28;20033;-71
2022/09/26 07:22:22;;;;;;;7.95;3.05;;;;;;;9.97;100.00;100154.84;5033309;28;20489;-72
2022/09/26 07:24:49;;;;;;;8.40;2.97;;;;;;;9.92;100.00;100144.59;5034259;28;20030;-71
2022/09/26 07:27:16;;;;;;;5.15;2.33;;;;;;;9.95;100.00;100149.72;5031687;28;20379;-71
2022/09/26 07:29:42;;;;;;;5.18;2.60;;;;;;;10.03;100.00;100152.06;5032932;28;20439;-71
2022/09/26 07:32:08;;;;;;;2.85;2.10;;;;;;;10.06;100.00;100152.81;5034347;28;20370;-71
2022/09/26 07:34:33;;;;;;;6.47;2.53;;;;;;;10.14;100.00;100162.16;5033078;28;20040;-71
2022/09/26 07:36:58;;;;;;;4.35;2.78;;;;;;;10.16;100.00;100142.94;5033560;28;20042;-71
2022/09/26 07:39:25;;;;;;;5.30;2.88;;;;;;;10.27;100.00;100150.47;5029593;28;20171;-72
2022/09/26 07:41:51;;;;;;;6.95;3.40;;;;;;;10.31;100.00;100144.22;5026212;28;20381;-71
2022/09/26 07:44:16;;;;;;;5.28;4.05;;;;;;;10.35;100.00;100148.44;5033713;28;20108;-71
2022/09/26 07:52:10;;;;;;;10.35;2.58;;;;;;;10.46;100.00;100140.25;5033224;28;19974;-72
2022/09/26 07:54:35;;;;;;;4.70;2.40;;;;;;;10.50;100.00;100142.72;5032575;28;20481;-71
2022/09/26 07:57:02;;;;;;;6.90;2.45;;;;;;;10.58;100.00;100133.78;5033741;28;20021;-72
2022/09/26 07:59:27;;;;;;;7.85;2.53;;;;;;;10.69;100.00;100149.88;5032656;28;20488;-72
2022/09/26 08:01:53;;;;;;;4.05;2.17;;;;;;;10.79;100.00;100138.25;5024449;28;20026;-71
2022/09/26 08:04:18;;;;;;;4.60;2.28;;;;;;;10.88;100.00;100131.84;5033215;28;20108;-71
2022/09/26 08:06:44;;;;;;;4.70;2.60;;;;;;;10.96;100.00;100122.00;5029269;28;20040;-71
2022/09/26 08:09:09;;;;;;;3.97;2.20;;;;;;;10.96;100.00;100104.56;5026073;28;20033;-71
2022/09/26 08:11:35;;;;;;;4.15;2.60;;;;;;;11.05;100.00;100116.41;5029861;28;20025;-71
2022/09/26 08:14:01;;;;;;;4.35;2.30;;;;;;;11.06;100.00;100117.28;5032111;28;20116;-71
2022/09/26 08:16:26;;;;;;;5.80;2.65;;;;;;;11.02;100.00;100106.97;5027860;28;20113;-70
2022/09/26 08:18:52;;;;;;;6.43;2.53;;;;;;;11.07;100.00;100105.94;5022821;28;20065;-71
2022/09/26 08:21:19;;;;;;;3.47;2.13;;;;;;;11.05;100.00;100102.53;5027202;28;20104;-71
2022/09/26 08:23:45;;;;;;;8.00;2.53;;;;;;;11.00;100.00;100115.75;5032370;28;20028;-71
2022/09/26 08:26:11;;;;;;;6.00;2.83;;;;;;;10.93;100.00;100109.91;5033423;28;20029;-71
2022/09/26 08:28:37;;;;;;;5.53;2.50;;;;;;;10.89;100.00;100110.94;5026061;28;20483;-71
2022/09/26 08:31:03;;;;;;;6.28;2.30;;;;;;;10.83;100.00;100105.94;5025760;28;20400;-71
2022/09/26 08:33:34;;;;;;;4.63;2.35;;;;;;;10.82;100.00;100106.81;5025148;28;20075;-71
2022/09/26 08:36:10;;;;;;;5.38;2.72;;;;;;;10.78;100.00;100094.81;5029984;28;20032;-70
2022/09/26 08:38:36;;;;;;;10.73;2.22;;;;;;;10.82;100.00;100096.38;5030089;28;20041;-70
2022/09/26 08:41:31;;;;;;;5.65;2.50;;;;;;;10.87;100.00;100099.69;5028106;28;21659;-71
2022/09/26 08:44:30;;;;;;;7.70;2.60;;;;;;;10.94;100.00;100097.72;5032275;28;20025;-73
2022/09/26 08:47:03;;;;;;;7.43;2.55;;;;;;;11.04;100.00;100091.25;5021499;28;20486;-72
2022/09/26 08:49:38;;;;;;;7.03;2.53;;;;;;;11.17;100.00;100094.25;5032371;28;20048;-72
2022/09/26 08:52:47;;;;;;;5.47;2.08;;;;;;;11.25;100.00;100085.22;5031831;28;20136;-72
2022/09/26 08:55:16;;;;;;;7.18;2.53;;;;;;;11.31;100.00;100078.06;5022903;28;20053;-73
2022/09/26 08:57:51;;;;;;;7.57;2.83;;;;;;;11.33;100.00;100069.25;5026250;28;20060;-73
2022/09/26 09:00:23;;;;;;;9.43;2.55;;;;;;;11.39;100.00;100076.84;5029004;28;20071;-71
2022/09/26 09:03:10;;;;;;;6.13;2.70;;;;;;;11.40;100.00;100082.94;5031940;28;20441;-73
2022/09/26 09:05:44;;;;;;;6.35;2.40;;;;;;;11.34;100.00;100070.13;5027267;28;20472;-73
2022/09/26 09:08:24;;;;;;;6.22;2.63;;;;;;;11.29;100.00;100065.09;5032323;28;20083;-73
2022/09/26 09:11:17;;;;;;;7.18;2.67;;;;;;;11.31;100.00;100063.25;5024104;28;20512;-73
2022/09/26 09:13:58;;;;;;;7.00;2.42;;;;;;;11.35;100.00;100067.47;5026532;28;20041;-73
2022/09/26 09:16:43;;;;;;;3.75;2.47;;;;;;;11.42;100.00;100066.31;5023005;28;20056;-73
2022/09/26 09:19:20;;;;;;;9.77;2.65;;;;;;;11.49;100.00;100067.75;5029008;28;20026;-73
2022/09/26 09:21:54;;;;;;;8.40;2.97;;;;;;;11.47;100.00;100063.50;5027039;28;21644;-73
2022/09/26 09:24:28;;;;;;;7.43;2.78;;;;;;;11.43;100.00;100048.88;5031901;28;20397;-74
2022/09/26 09:27:12;;;;;;;6.60;2.90;;;;;;;11.43;100.00;100054.09;5027419;28;20026;-74
2022/09/26 09:29:43;;;;;;;9.65;3.70;;;;;;;11.32;100.00;100041.47;5031802;28;20033;-75
2022/09/26 09:32:13;;;;;;;8.23;3.25;;;;;;;11.18;100.00;100034.19;5031143;28;20026;-76
2022/09/26 09:34:43;;;;;;;7.93;3.63;;;;;;;11.12;100.00;100033.59;5030658;28;20033;-76
2022/09/26 09:37:18;;;;;;;9.70;3.53;;;;;;;11.12;100.00;100029.22;5023026;28;20022;-76
2022/09/26 09:39:47;;;;;;;7.45;3.35;;;;;;;11.15;100.00;100025.63;5031958;28;20350;-77
2022/09/26 09:42:31;;;;;;;8.48;3.20;;;;;;;11.13;100.00;100011.81;5026859;28;20029;-76
2022/09/26 09:44:59;;;;;;;10.88;4.65;;;;;;;11.13;100.00;100011.81;5026104;28;20030;-76
2022/09/26 09:47:28;;;;;;;8.52;3.85;;;;;;;11.07;100.00;100001.59;5030804;28;20347;-77
2022/09/26 09:49:55;;;;;;;10.30;3.80;;;;;;;11.01;100.00;99993.09;5031917;28;20470;-79
2022/09/26 09:52:32;;;;;;;8.68;3.55;;;;;;;10.96;100.00;100005.47;5031159;28;20044;-78
2022/09/26 09:55:24;;;;;;;10.55;4.28;;;;;;;10.97;100.00;99991.50;5025069;28;20124;-79
2022/09/26 09:58:01;;;;;;;7.85;3.90;;;;;;;10.94;100.00;99986.41;5019478;28;20033;-79
2022/09/26 10:00:26;;;;;;;10.20;3.83;;;;;;;10.95;100.00;99977.72;5030802;28;20109;-78
2022/09/26 10:03:14;;;;;;;11.48;4.38;;;;;;;11.03;100.00;99982.63;5019570;28;20108;-78
2022/09/26 10:05:44;;;;;;;8.93;4.25;;;;;;;11.18;100.00;99976.81;5031126;28;20053;-78
2022/09/26 10:08:21;;;;;;;11.65;4.95;;;;;;;11.33;100.00;99966.66;5028632;28;20056;-75
2022/09/26 10:11:11;;;;;;;10.90;4.55;;;;;;;11.32;100.00;99971.03;5019837;28;20073;-77
2022/09/26 10:13:41;;;;;;;10.13;4.57;;;;;;;11.31;100.00;99963.25;5031041;28;20461;-77
2022/09/26 10:16:08;;;;;;;10.27;4.78;;;;;;;11.34;100.00;99957.91;5025978;28;20144;-76
2022/09/26 10:18:54;;;;;;;9.38;4.53;;;;;;;11.38;100.00;99964.69;5031055;28;20029;-76
2022/09/26 10:21:24;;;;;;;10.35;4.85;;;;;;;11.43;100.00;99961.00;5032569;28;20033;-76
2022/09/26 10:23:50;;;;;;;9.75;4.43;;;;;;;11.42;100.00;99954.09;5035028;28;20025;-77
2022/09/26 10:26:23;;;;;;;7.72;4.50;;;;;;;11.30;100.00;99948.50;5028459;28;20052;-76
2022/09/26 10:28:54;;;;;;;9.50;4.60;;;;;;;11.23;100.00;99945.31;5032846;28;20033;-77
2022/09/26 10:31:37;;;;;;;8.80;4.22;;;;;;;11.18;100.00;99942.00;5034410;28;20112;-77
2022/09/26 10:34:09;;;;;;;9.52;4.70;;;;;;;11.14;100.00;99936.06;5034142;28;20036;-76
2022/09/26 10:36:37;;;;;;;9.98;4.65;;;;;;;11.16;100.00;99938.63;5032708;28;20048;-77
2022/09/26 10:42:03;;;;;;;8.45;4.65;;;;;;;11.15;100.00;99934.31;5034575;28;20068;-76
2022/09/26 10:44:33;;;;;;;8.05;4.30;;;;;;;11.17;100.00;99922.06;5019256;28;20022;-76
2022/09/26 10:47:07;;;;;;;10.25;4.63;;;;;;;11.16;100.00;99915.16;5033099;28;20044;-76
2022/09/26 10:50:01;;;;;;;7.43;4.90;;;;;;;11.14;100.00;99916.97;5034726;28;20037;-76
2022/09/26 10:52:32;;;;;;;10.75;5.25;;;;;;;11.08;100.00;99920.66;5033700;28;20454;-76
2022/09/26 10:55:06;;;;;;;10.55;4.72;;;;;;;11.06;100.00;99911.22;5035118;28;20095;-76
2022/09/26 10:57:38;;;;;;;10.38;5.30;;;;;;;11.11;100.00;99910.09;5033718;28;20105;-76
2022/09/26 11:00:06;;;;;;;13.48;5.25;;;;;;;11.18;100.00;99910.72;5033697;28;20029;-76
2022/09/26 11:02:32;;;;;;;8.85;5.10;;;;;;;11.14;100.00;99893.50;5019978;28;20055;-76
2022/09/26 11:07:46;;;;;;;11.70;5.30;;;;;;;11.11;100.00;99912.72;5034270;28;20043;-76
2022/09/26 11:10:21;;;;;;;9.85;5.63;;;;;;;11.06;100.00;99906.00;5034781;28;20112;-76
2022/09/26 11:12:59;;;;;;;11.07;5.60;;;;;;;11.12;100.00;99905.78;5034065;28;20362;-76
2022/09/26 11:15:25;;;;;;;10.50;6.20;;;;;;;11.15;100.00;99900.41;5029497;28;20029;-77
2022/09/26 11:17:52;;;;;;;11.52;5.82;;;;;;;11.15;100.00;99897.78;5038827;28;20053;-77
2022/09/26 11:20:46;;;;;;;8.88;5.32;;;;;;;11.15;100.00;99900.41;5024747;28;20109;-77
2022/09/26 11:23:18;;;;;;;8.95;5.03;;;;;;;11.04;100.00;99892.16;5031549;28;20110;-78
2022/09/26 11:25:53;;;;;;;8.75;5.80;;;;;;;10.97;100.00;99896.78;5033370;28;20057;-78
2022/09/26 11:28:44;;;;;;;6.78;5.50;;;;;;;10.87;100.00;99888.47;5034153;28;20025;-78
2022/09/26 11:31:25;;;;;;;8.15;5.10;;;;;;;10.88;100.00;99886.72;5033760;28;20048;-77
2022/09/26 11:33:50;;;;;;;10.60;5.82;;;;;;;10.88;100.00;99886.72;5019301;28;20017;-77
2022/09/26 11:36:21;;;;;;;11.48;6.07;;;;;;;10.87;100.00;99885.03;5025297;28;20032;-79
2022/09/26 11:38:55;;;;;;;11.32;5.80;;;;;;;10.81;100.00;99861.81;5034292;28;20029;-79
2022/09/26 11:41:40;;;;;;;10.40;5.47;;;;;;;10.72;100.00;99850.81;5023733;28;20041;-78
2022/09/26 11:44:24;;;;;;;9.63;5.75;;;;;;;10.90;100.00;99870.09;5034066;28;20358;-78
2022/09/26 11:47:33;;;;;;;9.40;5.50;;;;;;;10.90;100.00;99870.09;5032662;28;20142;-79
2022/09/26 11:50:22;;;;;;;10.18;5.88;;;;;;;10.90;100.00;99870.09;5019468;28;20033;-79
2022/09/26 11:52:59;;;;;;;9.20;5.53;;;;;;;10.94;100.00;99869.06;5023164;28;20057;-77
2022/09/26 11:55:54;;;;;;;8.60;5.78;;;;;;;10.95;100.00;99873.38;5032513;28;20033;-77
2022/09/26 11:58:49;;;;;;;8.40;5.47;;;;;;;10.93;100.00;99862.16;5033707;28;20029;-77